Padova, Italy

8:34 AM CEST on August 28, 2015 (GMT +0200)
IVENETOP4 | | Change Station
CLOSE
Current Station
Personal Weather Station
Location: Padova, Veneto
Elevation: 80 ft
Nearby Weather Stations

Elev 80 ft 45.39 °N, 11.87 °E | Updated 10 minutes ago

Mist
Mist
72.2 °F
Feels Like 72 °F
N
0.0
Wind Variable Wind from SSE
Gusts 0.0 mph

Today
High -- | Low -- °F
--% Chance of Precip.
Yesterday
High -- | Low -- °F
Precip. -- in
6:28 AM 7:58 PM
Waxing Gibbous, 97% visible
Pressure 30.06 in
Visibility 2.2 miles
Clouds
Heat Index 72 °F
Dew Point 67 °F
Humidity 83%
Rainfall 0.00 in
Snow Depth Not available.
UV 0.0 out of 12
Pollen Not available.
Air Quality Not available.
Flu Activity Not available.
METAR LIPH 280615Z 02003KT 3500 BR NSC 21/19 Q1018
Pressure 30.06 in
Visibility 2.2 miles
Clouds
Heat Index 72 °F
Dew Point 67 °F
Humidity 83%
Rainfall 0.00 in
Snow Depth Not available.
UV 0.0 out of 12
Pollen Not available.
Air Quality Not available.
Flu Activity Not available.
METAR LIPH 280615Z 02003KT 3500 BR NSC 21/19 Q1018

10-Day Weather Forecast

×

Almanac

Astronomy

Aug. 28, 2015 Rise Set
Actual Time
Civil Twilight
Nautical Twilight
Astronomical Twilight
Moon
Length of Visible Light
Length of Day
Tomorrow will be .
, % of the Moon is Illuminated

Today's Extremes

Country Highs Country Lows

Community

WunderPhotos

Upload Photos

1,850,341 photos uploaded!

WunderBlogs® & News

Nearby

Air Quality

  Air Quality AQ Index Pollutant
Not available.

Snow Depth

Station Depth Elevation

Earthquake Activity

City Distance Mag. Time & Date
Minimum magnitude displayed is 2.5.

Coastal Water Temperatures

Place Temperature

Stations

Nearby Weather Stations

Station Location Temp. Windchill Dew Point Humidity Wind Precip. Elev Updated Type